createdAt,value
2023-01-23T00:02:12.482Z,20.88
2023-01-23T00:07:14.330Z,21.98
2023-01-23T00:12:16.714Z,22.50
2023-01-23T00:17:18.473Z,22.45
2023-01-23T00:22:20.329Z,23.02
2023-01-23T00:27:22.239Z,21.55
2023-01-23T00:32:24.157Z,19.08
2023-01-23T00:37:25.947Z,22.17
2023-01-23T00:42:27.714Z,22.42
2023-01-23T00:47:29.549Z,20.70
2023-01-23T00:52:33.161Z,22.35
2023-01-23T00:57:35.080Z,22.85
2023-01-23T01:02:37.002Z,24.42
2023-01-23T01:07:39.052Z,23.30
2023-01-23T01:12:41.510Z,23.27
2023-01-23T01:17:43.333Z,25.70
2023-01-23T01:22:45.105Z,24.90
2023-01-23T01:27:47.234Z,23.80
2023-01-23T01:32:49.124Z,25.55
2023-01-23T01:37:51.597Z,25.17
2023-01-23T01:42:59.983Z,23.15
2023-01-23T01:48:01.798Z,24.90
2023-01-23T01:53:03.788Z,25.13
2023-01-23T01:58:06.074Z,23.80
2023-01-23T02:03:08.214Z,26.08
2023-01-23T02:08:26.553Z,23.92
2023-01-23T02:13:32.604Z,25.35
2023-01-23T02:18:37.441Z,26.55
2023-01-23T02:24:04.421Z,25.40
2023-01-23T02:29:06.745Z,26.70
2023-01-23T02:34:11.818Z,27.17
2023-01-23T02:39:20.454Z,24.73
2023-01-23T02:44:28.705Z,25.45
2023-01-23T02:49:30.653Z,25.77
2023-01-23T02:54:32.861Z,26.58
2023-01-23T02:59:53.110Z,27.35
2023-01-23T03:04:54.884Z,20.80
2023-01-23T03:09:56.758Z,27.08
2023-01-23T03:14:58.952Z,27.13
2023-01-23T03:20:01.597Z,28.98
2023-01-23T03:25:03.531Z,28.05
2023-01-23T03:30:15.860Z,25.80
2023-01-23T03:35:21.889Z,28.30
2023-01-23T03:40:43.777Z,28.35
2023-01-23T03:45:45.864Z,27.83
2023-01-23T03:50:47.660Z,28.30
2023-01-23T03:55:49.496Z,27.90
2023-01-23T04:00:51.497Z,27.95
2023-01-23T04:06:00.084Z,28.90
2023-01-23T04:11:06.438Z,27.30
2023-01-23T04:16:08.475Z,27.98
2023-01-23T04:21:10.891Z,30.08
2023-01-23T04:26:13.754Z,28.90
2023-01-23T04:31:15.628Z,30.50
2023-01-23T04:36:17.579Z,29.27
2023-01-23T04:41:24.793Z,28.25
2023-01-23T04:46:26.524Z,29.45
2023-01-23T04:51:28.422Z,29.80
2023-01-23T04:56:30.259Z,28.95
2023-01-23T05:01:32.291Z,29.35
2023-01-23T05:06:34.074Z,28.88
2023-01-23T05:11:35.850Z,31.50
2023-01-23T05:16:37.645Z,31.25
2023-01-23T05:21:39.487Z,32.03
2023-01-23T05:26:41.274Z,28.70
2023-01-23T05:31:43.178Z,29.77
2023-01-23T05:36:45.013Z,30.65
2023-01-23T05:41:46.825Z,29.05
2023-01-23T05:46:48.634Z,32.53
2023-01-23T05:51:50.411Z,28.52
2023-01-23T05:56:52.335Z,31.10
2023-01-23T06:01:54.124Z,30.67
2023-01-23T06:06:56.005Z,30.52
2023-01-23T06:11:57.799Z,31.70
2023-01-23T06:16:59.746Z,32.60
2023-01-23T06:22:01.570Z,28.80
2023-01-23T06:27:08.157Z,30.45
2023-01-23T06:32:09.967Z,30.42
2023-01-23T06:37:11.738Z,31.67
2023-01-23T06:42:13.683Z,30.30
2023-01-23T06:47:16.774Z,29.38
2023-01-23T06:52:18.781Z,28.60
2023-01-23T06:57:21.334Z,29.25
2023-01-23T07:02:23.387Z,29.50
2023-01-23T07:07:25.167Z,30.33
2023-01-23T07:12:28.413Z,31.20
2023-01-23T07:17:30.453Z,30.38
2023-01-23T07:22:32.386Z,30.27
2023-01-23T07:27:34.232Z,29.48
2023-01-23T07:32:36.073Z,32.03
2023-01-23T07:37:37.898Z,29.77
2023-01-23T07:42:41.882Z,28.52
2023-01-23T07:47:45.606Z,28.67
2023-01-23T07:52:47.704Z,30.38
2023-01-23T07:57:49.496Z,28.38
2023-01-23T08:02:51.574Z,29.65
2023-01-23T08:08:07.362Z,32.40
2023-01-23T08:13:17.162Z,30.55
2023-01-23T08:18:18.970Z,31.08
2023-01-23T08:23:20.858Z,28.35
2023-01-23T08:28:23.382Z,27.83
2023-01-23T08:33:25.130Z,29.58
2023-01-23T08:38:27.320Z,29.70
2023-01-23T08:43:29.386Z,29.83
2023-01-23T08:48:31.288Z,29.20
2023-01-23T08:53:34.510Z,28.73
2023-01-23T08:58:36.311Z,30.00
2023-01-23T09:03:38.291Z,29.55
2023-01-23T09:08:40.398Z,30.20
2023-01-23T09:13:42.529Z,32.35
2023-01-23T09:18:44.453Z,29.05
2023-01-23T09:23:46.221Z,29.08
2023-01-23T09:28:48.055Z,31.38
2023-01-23T09:33:49.979Z,30.60
2023-01-23T09:38:51.825Z,30.45
2023-01-23T09:43:57.944Z,29.73
2023-01-23T09:49:05.044Z,29.88
2023-01-23T09:54:28.939Z,29.88
2023-01-23T09:59:54.012Z,30.45
2023-01-23T10:05:03.078Z,28.92
2023-01-23T10:10:34.344Z,30.85
2023-01-23T10:15:49.157Z,29.35
2023-01-23T10:21:08.465Z,30.08
2023-01-23T10:26:18.534Z,28.15
2023-01-23T10:31:28.053Z,22.45
2023-01-23T10:36:56.264Z,30.23
2023-01-23T10:42:02.347Z,28.27
2023-01-23T10:47:16.092Z,30.35
2023-01-23T10:52:38.086Z,28.75
2023-01-23T10:57:49.204Z,29.10
2023-01-23T11:02:51.312Z,30.33
2023-01-23T11:07:56.144Z,31.63
2023-01-23T11:13:00.673Z,30.33
2023-01-23T11:18:02.625Z,28.80
2023-01-23T11:23:13.444Z,29.45
2023-01-23T11:28:26.950Z,28.65
2023-01-23T11:33:56.750Z,29.00
2023-01-23T11:39:07.734Z,29.05
2023-01-23T11:44:23.323Z,27.63
2023-01-23T11:49:35.060Z,28.73
2023-01-23T12:00:14.417Z,27.25
2023-01-23T12:05:56.867Z,22.45
2023-01-23T12:11:16.409Z,22.50
2023-01-23T12:16:32.580Z,29.58
2023-01-23T12:22:03.683Z,28.95
2023-01-23T12:27:13.842Z,28.88
2023-01-23T12:32:25.285Z,20.05
2023-01-23T12:37:38.478Z,28.25
2023-01-23T12:43:09.224Z,28.17
2023-01-23T12:53:25.147Z,25.92
2023-01-23T12:58:30.108Z,27.10
2023-01-23T13:04:00.435Z,27.23
2023-01-23T13:09:18.955Z,20.60
2023-01-23T13:14:29.135Z,27.50
2023-01-23T13:20:00.551Z,29.08
2023-01-23T13:25:13.375Z,27.48
2023-01-23T13:30:27.189Z,26.17
2023-01-23T13:35:44.627Z,25.83
2023-01-23T13:41:11.447Z,26.40
2023-01-23T13:46:23.951Z,25.40
2023-01-23T14:24:03.898Z,26.27
2023-01-23T14:29:24.523Z,23.50
2023-01-23T14:34:27.064Z,18.20
2023-01-23T14:39:31.293Z,24.45
2023-01-23T14:44:42.104Z,25.95
2023-01-23T14:49:47.227Z,24.25
2023-01-23T14:54:54.198Z,23.48
2023-01-23T14:59:58.121Z,22.63
2023-01-23T15:05:12.206Z,20.25
2023-01-23T15:10:26.000Z,19.85
2023-01-23T15:15:28.757Z,18.02
2023-01-23T15:20:41.202Z,18.20
2023-01-23T15:25:43.273Z,18.92
2023-01-23T15:30:48.408Z,18.05
2023-01-23T15:35:50.539Z,19.33
2023-01-23T15:40:52.328Z,19.25
2023-01-23T15:45:54.295Z,19.83
2023-01-23T15:50:56.282Z,21.77
2023-01-23T15:55:58.063Z,20.30
2023-01-23T16:00:59.880Z,20.67
2023-01-23T16:06:01.783Z,21.42
2023-01-23T16:11:03.607Z,21.13
2023-01-23T16:16:15.789Z,22.02
2023-01-23T16:21:19.740Z,21.00
2023-01-23T16:26:25.521Z,20.52
2023-01-23T16:31:27.451Z,17.65
2023-01-23T16:36:29.903Z,18.42
2023-01-23T16:41:31.771Z,15.55
2023-01-23T16:46:33.566Z,15.27
2023-01-23T16:51:36.315Z,14.02
2023-01-23T16:56:40.825Z,15.15
2023-01-23T17:01:45.497Z,15.48
2023-01-23T17:06:48.216Z,15.85
2023-01-23T17:11:57.231Z,17.33
2023-01-23T17:17:07.577Z,16.92
2023-01-23T17:22:23.427Z,12.65
2023-01-23T17:27:25.349Z,19.58
2023-01-23T17:32:35.589Z,17.48
2023-01-23T17:37:37.482Z,13.15
2023-01-23T17:42:39.581Z,18.02
2023-01-23T17:47:47.794Z,18.58
2023-01-23T17:52:51.536Z,17.70
2023-01-23T17:57:53.409Z,16.20
2023-01-23T18:03:00.671Z,17.08
2023-01-23T18:08:02.476Z,18.92
2023-01-23T18:13:14.526Z,20.20
2023-01-23T18:18:30.999Z,20.20
2023-01-23T18:23:37.021Z,18.88
2023-01-23T18:28:45.161Z,19.67
2023-01-23T18:33:58.115Z,19.00
2023-01-23T18:39:20.390Z,18.27
2023-01-23T18:44:26.515Z,17.40
2023-01-23T18:49:32.889Z,17.02
2023-01-23T18:55:05.450Z,18.80
2023-01-23T19:00:15.462Z,18.08
2023-01-23T19:05:30.881Z,17.83
2023-01-23T19:10:48.531Z,18.52
2023-01-23T19:16:13.236Z,18.42
2023-01-23T19:21:25.104Z,18.73
2023-01-23T19:26:30.008Z,19.33
2023-01-23T19:31:34.674Z,19.63
2023-01-23T19:36:38.408Z,20.30
2023-01-23T19:41:48.670Z,19.48
2023-01-23T19:46:53.951Z,15.15
2023-01-23T19:51:55.817Z,19.70
2023-01-23T19:56:57.683Z,21.77
2023-01-23T20:01:59.970Z,19.90
2023-01-23T20:07:01.903Z,21.90
2023-01-23T20:12:04.287Z,21.98
2023-01-23T20:17:06.096Z,22.98
2023-01-23T20:22:07.965Z,22.45
2023-01-23T20:27:10.116Z,24.45
2023-01-23T20:32:12.279Z,24.00
2023-01-23T20:37:14.424Z,24.08
2023-01-23T20:42:16.459Z,25.48
2023-01-23T20:47:18.449Z,24.95
2023-01-23T20:52:38.884Z,25.52
2023-01-23T20:57:59.306Z,20.58
2023-01-23T21:03:01.245Z,19.83
2023-01-23T21:08:03.088Z,26.00
2023-01-23T21:13:05.163Z,24.65
2023-01-23T21:18:07.085Z,25.45
2023-01-23T21:23:08.937Z,22.70
2023-01-23T21:28:10.828Z,21.80
2023-01-23T21:33:12.821Z,22.33
2023-01-23T21:38:14.614Z,22.10
2023-01-23T21:43:16.499Z,23.48
2023-01-23T21:48:18.315Z,21.88
2023-01-23T21:53:20.218Z,25.50
2023-01-23T21:58:22.015Z,24.30
2023-01-23T22:03:23.829Z,24.35
2023-01-23T22:08:25.642Z,22.33
2023-01-23T22:13:27.758Z,22.00
2023-01-23T22:18:30.357Z,21.98
2023-01-23T22:23:32.957Z,22.83
2023-01-23T22:28:35.263Z,21.45
2023-01-23T22:33:43.022Z,21.83
2023-01-23T22:38:50.090Z,23.08
2023-01-23T22:43:56.443Z,21.60
2023-01-23T22:48:58.294Z,22.98
2023-01-23T22:54:00.269Z,23.35
2023-01-23T22:59:02.291Z,23.63
2023-01-23T23:04:04.211Z,23.95
2023-01-23T23:09:06.038Z,23.92
2023-01-23T23:14:09.001Z,24.33
2023-01-23T23:19:11.026Z,24.35
2023-01-23T23:24:14.004Z,23.33
2023-01-23T23:29:16.806Z,23.70
2023-01-23T23:34:19.602Z,24.55
2023-01-23T23:39:21.419Z,26.98
2023-01-23T23:44:23.203Z,25.85
2023-01-23T23:49:26.446Z,24.48
2023-01-23T23:54:28.388Z,27.20
2023-01-23T23:59:30.207Z,29.17
